sensor_id;sensor_type;location;lat;lon;timestamp;P1;durP1;ratioP1;P2;durP2;ratioP2
60873;SDS011;46715;40.642;-7.920;2022-11-20T00:01:27;449.47;;;46.37;;
60873;SDS011;46715;40.642;-7.920;2022-11-20T00:03:28;359.58;;;40.20;;
60873;SDS011;46715;40.642;-7.920;2022-11-20T00:05:31;303.30;;;37.30;;
60873;SDS011;46715;40.642;-7.920;2022-11-20T00:07:32;401.48;;;42.33;;
60873;SDS011;46715;40.642;-7.920;2022-11-20T00:09:33;513.87;;;48.40;;
60873;SDS011;46715;40.642;-7.920;2022-11-20T00:11:34;403.47;;;40.43;;
60873;SDS011;46715;40.642;-7.920;2022-11-20T00:13:35;469.50;;;44.07;;
60873;SDS011;46715;40.642;-7.920;2022-11-20T00:15:35;441.33;;;45.93;;
60873;SDS011;46715;40.642;-7.920;2022-11-20T00:17:36;456.27;;;44.23;;
60873;SDS011;46715;40.642;-7.920;2022-11-20T00:19:37;443.40;;;44.33;;
60873;SDS011;46715;40.642;-7.920;2022-11-20T00:21:38;471.97;;;45.10;;
60873;SDS011;46715;40.642;-7.920;2022-11-20T00:23:38;456.70;;;47.63;;
60873;SDS011;46715;40.642;-7.920;2022-11-20T00:25:39;471.43;;;48.57;;
60873;SDS011;46715;40.642;-7.920;2022-11-20T00:27:40;492.00;;;45.73;;
60873;SDS011;46715;40.642;-7.920;2022-11-20T00:29:41;463.42;;;45.55;;
60873;SDS011;46715;40.642;-7.920;2022-11-20T00:31:42;469.80;;;46.70;;
60873;SDS011;46715;40.642;-7.920;2022-11-20T00:33:43;535.20;;;50.70;;
60873;SDS011;46715;40.642;-7.920;2022-11-20T00:35:44;488.03;;;45.93;;
60873;SDS011;46715;40.642;-7.920;2022-11-20T00:37:45;485.10;;;44.75;;
60873;SDS011;46715;40.642;-7.920;2022-11-20T00:39:46;497.90;;;51.53;;
60873;SDS011;46715;40.642;-7.920;2022-11-20T00:41:47;468.20;;;45.23;;
60873;SDS011;46715;40.642;-7.920;2022-11-20T00:43:47;396.80;;;44.93;;
60873;SDS011;46715;40.642;-7.920;2022-11-20T00:45:48;380.80;;;36.50;;
60873;SDS011;46715;40.642;-7.920;2022-11-20T00:47:49;259.27;;;29.07;;
60873;SDS011;46715;40.642;-7.920;2022-11-20T00:49:50;148.97;;;23.33;;
60873;SDS011;46715;40.642;-7.920;2022-11-20T00:51:51;90.03;;;18.50;;
60873;SDS011;46715;40.642;-7.920;2022-11-20T00:53:51;37.03;;;15.87;;
60873;SDS011;46715;40.642;-7.920;2022-11-20T00:58:02;51.28;;;16.60;;
60873;SDS011;46715;40.642;-7.920;2022-11-20T01:00:03;40.27;;;15.93;;
60873;SDS011;46715;40.642;-7.920;2022-11-20T01:02:04;26.63;;;13.88;;
60873;SDS011;46715;40.642;-7.920;2022-11-20T01:04:05;22.13;;;11.53;;
60873;SDS011;46715;40.642;-7.920;2022-11-20T01:06:09;20.20;;;10.45;;
60873;SDS011;46715;40.642;-7.920;2022-11-20T01:08:11;18.08;;;10.75;;
60873;SDS011;46715;40.642;-7.920;2022-11-20T01:10:13;22.15;;;11.63;;
60873;SDS011;46715;40.642;-7.920;2022-11-20T01:12:14;68.13;;;16.97;;
60873;SDS011;46715;40.642;-7.920;2022-11-20T01:14:17;162.77;;;19.77;;
60873;SDS011;46715;40.642;-7.920;2022-11-20T01:16:24;190.73;;;25.58;;
60873;SDS011;46715;40.642;-7.920;2022-11-20T01:18:37;183.40;;;20.45;;
60873;SDS011;46715;40.642;-7.920;2022-11-20T01:20:39;188.50;;;21.85;;
60873;SDS011;46715;40.642;-7.920;2022-11-20T01:22:40;63.07;;;16.23;;
60873;SDS011;46715;40.642;-7.920;2022-11-20T01:24:41;155.70;;;21.53;;
60873;SDS011;46715;40.642;-7.920;2022-11-20T01:26:42;58.23;;;13.87;;
60873;SDS011;46715;40.642;-7.920;2022-11-20T01:28:44;147.75;;;20.20;;
60873;SDS011;46715;40.642;-7.920;2022-11-20T01:30:45;265.77;;;25.33;;
60873;SDS011;46715;40.642;-7.920;2022-11-20T01:32:46;271.20;;;26.70;;
60873;SDS011;46715;40.642;-7.920;2022-11-20T01:34:47;210.30;;;20.70;;
60873;SDS011;46715;40.642;-7.920;2022-11-20T01:36:48;417.13;;;35.33;;
60873;SDS011;46715;40.642;-7.920;2022-11-20T01:38:56;192.15;;;20.50;;
60873;SDS011;46715;40.642;-7.920;2022-11-20T01:41:02;351.17;;;29.73;;
60873;SDS011;46715;40.642;-7.920;2022-11-20T01:43:13;331.10;;;27.95;;
60873;SDS011;46715;40.642;-7.920;2022-11-20T01:47:52;383.90;;;33.43;;
60873;SDS011;46715;40.642;-7.920;2022-11-20T01:49:55;350.00;;;28.23;;
60873;SDS011;46715;40.642;-7.920;2022-11-20T01:52:04;489.13;;;42.40;;
60873;SDS011;46715;40.642;-7.920;2022-11-20T01:54:17;468.63;;;37.42;;
60873;SDS011;46715;40.642;-7.920;2022-11-20T01:56:22;301.08;;;26.15;;
60873;SDS011;46715;40.642;-7.920;2022-11-20T01:58:25;244.93;;;25.08;;
60873;SDS011;46715;40.642;-7.920;2022-11-20T02:00:31;355.70;;;30.77;;
60873;SDS011;46715;40.642;-7.920;2022-11-20T02:02:32;382.35;;;27.02;;
60873;SDS011;46715;40.642;-7.920;2022-11-20T02:04:33;260.65;;;24.20;;
60873;SDS011;46715;40.642;-7.920;2022-11-20T02:06:42;478.43;;;39.40;;
60873;SDS011;46715;40.642;-7.920;2022-11-20T02:09:04;424.73;;;35.25;;
60873;SDS011;46715;40.642;-7.920;2022-11-20T02:11:04;473.93;;;41.50;;
60873;SDS011;46715;40.642;-7.920;2022-11-20T02:13:08;440.88;;;38.53;;
60873;SDS011;46715;40.642;-7.920;2022-11-20T02:15:27;331.15;;;30.25;;
60873;SDS011;46715;40.642;-7.920;2022-11-20T02:17:28;477.67;;;38.97;;
60873;SDS011;46715;40.642;-7.920;2022-11-20T02:19:30;449.73;;;35.75;;
60873;SDS011;46715;40.642;-7.920;2022-11-20T02:26:15;414.42;;;35.58;;
60873;SDS011;46715;40.642;-7.920;2022-11-20T02:28:17;279.02;;;24.85;;
60873;SDS011;46715;40.642;-7.920;2022-11-20T02:30:18;363.58;;;32.92;;
60873;SDS011;46715;40.642;-7.920;2022-11-20T02:32:26;341.50;;;27.85;;
60873;SDS011;46715;40.642;-7.920;2022-11-20T02:34:29;342.13;;;30.23;;
60873;SDS011;46715;40.642;-7.920;2022-11-20T02:36:30;458.80;;;40.90;;
60873;SDS011;46715;40.642;-7.920;2022-11-20T02:38:33;408.58;;;32.95;;
60873;SDS011;46715;40.642;-7.920;2022-11-20T02:40:34;383.63;;;32.33;;
60873;SDS011;46715;40.642;-7.920;2022-11-20T02:42:35;391.47;;;33.27;;
60873;SDS011;46715;40.642;-7.920;2022-11-20T02:44:36;381.02;;;31.13;;
60873;SDS011;46715;40.642;-7.920;2022-11-20T02:46:37;409.25;;;32.33;;
60873;SDS011;46715;40.642;-7.920;2022-11-20T02:48:38;369.17;;;32.87;;
60873;SDS011;46715;40.642;-7.920;2022-11-20T02:50:39;393.70;;;36.50;;
60873;SDS011;46715;40.642;-7.920;2022-11-20T02:52:40;406.02;;;35.05;;
60873;SDS011;46715;40.642;-7.920;2022-11-20T02:54:41;368.38;;;29.73;;
60873;SDS011;46715;40.642;-7.920;2022-11-20T02:56:42;278.57;;;24.80;;
60873;SDS011;46715;40.642;-7.920;2022-11-20T02:58:43;266.85;;;23.83;;
60873;SDS011;46715;40.642;-7.920;2022-11-20T03:00:44;336.80;;;28.23;;
60873;SDS011;46715;40.642;-7.920;2022-11-20T03:02:45;250.47;;;23.77;;
60873;SDS011;46715;40.642;-7.920;2022-11-20T03:04:46;283.40;;;24.63;;
60873;SDS011;46715;40.642;-7.920;2022-11-20T03:06:47;306.70;;;30.70;;
60873;SDS011;46715;40.642;-7.920;2022-11-20T03:08:47;304.80;;;26.93;;
60873;SDS011;46715;40.642;-7.920;2022-11-20T03:10:48;280.77;;;25.20;;
60873;SDS011;46715;40.642;-7.920;2022-11-20T03:12:53;280.43;;;26.40;;
60873;SDS011;46715;40.642;-7.920;2022-11-20T03:14:55;341.42;;;28.05;;
60873;SDS011;46715;40.642;-7.920;2022-11-20T03:16:56;262.37;;;23.83;;
60873;SDS011;46715;40.642;-7.920;2022-11-20T03:18:57;240.93;;;21.75;;
60873;SDS011;46715;40.642;-7.920;2022-11-20T03:20:58;256.27;;;22.38;;
60873;SDS011;46715;40.642;-7.920;2022-11-20T03:22:59;305.85;;;25.15;;
60873;SDS011;46715;40.642;-7.920;2022-11-20T03:25:00;273.20;;;23.52;;
60873;SDS011;46715;40.642;-7.920;2022-11-20T03:27:01;255.73;;;23.60;;
60873;SDS011;46715;40.642;-7.920;2022-11-20T03:29:03;272.77;;;27.97;;
60873;SDS011;46715;40.642;-7.920;2022-11-20T03:31:05;267.05;;;24.40;;
60873;SDS011;46715;40.642;-7.920;2022-11-20T03:33:11;276.23;;;24.73;;
60873;SDS011;46715;40.642;-7.920;2022-11-20T03:35:12;211.40;;;23.63;;
60873;SDS011;46715;40.642;-7.920;2022-11-20T03:37:12;272.10;;;26.03;;
60873;SDS011;46715;40.642;-7.920;2022-11-20T03:39:13;207.57;;;22.57;;
60873;SDS011;46715;40.642;-7.920;2022-11-20T03:41:15;238.80;;;22.47;;
60873;SDS011;46715;40.642;-7.920;2022-11-20T03:43:18;225.45;;;22.13;;
60873;SDS011;46715;40.642;-7.920;2022-11-20T03:45:18;231.83;;;26.27;;
60873;SDS011;46715;40.642;-7.920;2022-11-20T03:47:19;188.00;;;20.50;;
60873;SDS011;46715;40.642;-7.920;2022-11-20T03:49:20;163.13;;;19.73;;
60873;SDS011;46715;40.642;-7.920;2022-11-20T03:51:26;220.50;;;23.55;;
60873;SDS011;46715;40.642;-7.920;2022-11-20T03:53:28;244.55;;;23.58;;
60873;SDS011;46715;40.642;-7.920;2022-11-20T03:55:29;220.32;;;21.45;;
60873;SDS011;46715;40.642;-7.920;2022-11-20T03:57:30;178.87;;;20.40;;
60873;SDS011;46715;40.642;-7.920;2022-11-20T03:59:33;182.13;;;18.98;;
60873;SDS011;46715;40.642;-7.920;2022-11-20T04:01:34;183.30;;;20.60;;
60873;SDS011;46715;40.642;-7.920;2022-11-20T04:03:40;135.50;;;16.83;;
60873;SDS011;46715;40.642;-7.920;2022-11-20T04:05:42;185.95;;;19.65;;
60873;SDS011;46715;40.642;-7.920;2022-11-20T04:07:44;148.75;;;16.25;;
60873;SDS011;46715;40.642;-7.920;2022-11-20T04:09:45;161.13;;;17.70;;
60873;SDS011;46715;40.642;-7.920;2022-11-20T04:11:46;189.73;;;18.57;;
60873;SDS011;46715;40.642;-7.920;2022-11-20T04:13:48;183.97;;;17.27;;
60873;SDS011;46715;40.642;-7.920;2022-11-20T04:15:51;158.00;;;17.00;;
60873;SDS011;46715;40.642;-7.920;2022-11-20T04:17:54;173.93;;;19.88;;
60873;SDS011;46715;40.642;-7.920;2022-11-20T04:21:56;182.93;;;16.92;;
60873;SDS011;46715;40.642;-7.920;2022-11-20T04:23:57;190.37;;;15.60;;
60873;SDS011;46715;40.642;-7.920;2022-11-20T04:26:05;109.27;;;14.43;;
60873;SDS011;46715;40.642;-7.920;2022-11-20T04:28:10;193.93;;;19.13;;
60873;SDS011;46715;40.642;-7.920;2022-11-20T04:30:11;182.30;;;16.57;;
60873;SDS011;46715;40.642;-7.920;2022-11-20T04:32:12;170.55;;;18.90;;
60873;SDS011;46715;40.642;-7.920;2022-11-20T04:34:13;135.70;;;14.00;;
60873;SDS011;46715;40.642;-7.920;2022-11-20T04:36:15;162.63;;;16.00;;
60873;SDS011;46715;40.642;-7.920;2022-11-20T04:38:17;182.25;;;18.05;;
60873;SDS011;46715;40.642;-7.920;2022-11-20T04:40:18;160.77;;;17.10;;
60873;SDS011;46715;40.642;-7.920;2022-11-20T04:42:19;179.67;;;18.93;;
60873;SDS011;46715;40.642;-7.920;2022-11-20T04:44:28;154.55;;;16.88;;
60873;SDS011;46715;40.642;-7.920;2022-11-20T04:46:33;188.73;;;17.30;;
60873;SDS011;46715;40.642;-7.920;2022-11-20T04:48:36;135.25;;;15.38;;
60873;SDS011;46715;40.642;-7.920;2022-11-20T04:50:39;117.23;;;14.80;;
60873;SDS011;46715;40.642;-7.920;2022-11-20T04:52:41;155.30;;;17.27;;
60873;SDS011;46715;40.642;-7.920;2022-11-20T04:54:41;127.60;;;14.73;;
60873;SDS011;46715;40.642;-7.920;2022-11-20T04:56:42;137.43;;;17.17;;
60873;SDS011;46715;40.642;-7.920;2022-11-20T04:58:43;138.67;;;14.90;;
60873;SDS011;46715;40.642;-7.920;2022-11-20T05:00:44;136.03;;;15.43;;
60873;SDS011;46715;40.642;-7.920;2022-11-20T05:02:45;134.63;;;16.87;;
60873;SDS011;46715;40.642;-7.920;2022-11-20T05:04:46;133.40;;;16.02;;
60873;SDS011;46715;40.642;-7.920;2022-11-20T05:06:47;98.43;;;14.97;;
60873;SDS011;46715;40.642;-7.920;2022-11-20T05:08:48;156.80;;;16.50;;
60873;SDS011;46715;40.642;-7.920;2022-11-20T05:10:49;143.35;;;18.58;;
60873;SDS011;46715;40.642;-7.920;2022-11-20T05:12:52;90.30;;;12.23;;
60873;SDS011;46715;40.642;-7.920;2022-11-20T05:14:53;81.35;;;11.75;;
60873;SDS011;46715;40.642;-7.920;2022-11-20T05:16:54;98.43;;;12.47;;
60873;SDS011;46715;40.642;-7.920;2022-11-20T05:18:54;108.30;;;13.17;;
60873;SDS011;46715;40.642;-7.920;2022-11-20T05:20:56;112.32;;;13.75;;
60873;SDS011;46715;40.642;-7.920;2022-11-20T05:24:58;96.43;;;11.13;;
60873;SDS011;46715;40.642;-7.920;2022-11-20T05:26:59;76.00;;;13.10;;
60873;SDS011;46715;40.642;-7.920;2022-11-20T05:29:00;108.50;;;13.05;;
60873;SDS011;46715;40.642;-7.920;2022-11-20T05:31:19;86.93;;;13.50;;
60873;SDS011;46715;40.642;-7.920;2022-11-20T05:33:24;81.82;;;11.43;;
60873;SDS011;46715;40.642;-7.920;2022-11-20T05:35:25;95.33;;;14.00;;
60873;SDS011;46715;40.642;-7.920;2022-11-20T05:37:26;102.00;;;13.67;;
60873;SDS011;46715;40.642;-7.920;2022-11-20T05:39:26;88.33;;;13.57;;
60873;SDS011;46715;40.642;-7.920;2022-11-20T05:41:27;106.30;;;14.73;;
60873;SDS011;46715;40.642;-7.920;2022-11-20T05:43:31;108.32;;;13.02;;
60873;SDS011;46715;40.642;-7.920;2022-11-20T05:45:35;110.82;;;15.13;;
60873;SDS011;46715;40.642;-7.920;2022-11-20T05:47:36;134.33;;;15.97;;
60873;SDS011;46715;40.642;-7.920;2022-11-20T05:49:39;111.07;;;14.27;;
60873;SDS011;46715;40.642;-7.920;2022-11-20T05:51:40;143.40;;;16.57;;
60873;SDS011;46715;40.642;-7.920;2022-11-20T05:53:41;114.65;;;12.32;;
60873;SDS011;46715;40.642;-7.920;2022-11-20T05:55:42;115.80;;;15.50;;
60873;SDS011;46715;40.642;-7.920;2022-11-20T05:57:43;130.80;;;15.10;;
60873;SDS011;46715;40.642;-7.920;2022-11-20T05:59:44;118.17;;;12.30;;
60873;SDS011;46715;40.642;-7.920;2022-11-20T06:01:45;121.80;;;14.77;;
60873;SDS011;46715;40.642;-7.920;2022-11-20T06:03:45;126.10;;;12.77;;
60873;SDS011;46715;40.642;-7.920;2022-11-20T06:05:47;89.68;;;13.95;;
60873;SDS011;46715;40.642;-7.920;2022-11-20T06:07:48;130.37;;;12.53;;
60873;SDS011;46715;40.642;-7.920;2022-11-20T06:09:49;121.97;;;13.50;;
60873;SDS011;46715;40.642;-7.920;2022-11-20T06:11:50;105.00;;;10.03;;
60873;SDS011;46715;40.642;-7.920;2022-11-20T06:13:50;106.57;;;12.47;;
60873;SDS011;46715;40.642;-7.920;2022-11-20T06:15:52;130.27;;;13.57;;
60873;SDS011;46715;40.642;-7.920;2022-11-20T06:17:54;101.10;;;13.00;;
60873;SDS011;46715;40.642;-7.920;2022-11-20T06:19:55;121.22;;;12.40;;
60873;SDS011;46715;40.642;-7.920;2022-11-20T06:21:56;133.07;;;12.63;;
60873;SDS011;46715;40.642;-7.920;2022-11-20T06:23:57;134.33;;;13.27;;
60873;SDS011;46715;40.642;-7.920;2022-11-20T06:26:00;175.80;;;16.73;;
60873;SDS011;46715;40.642;-7.920;2022-11-20T06:28:03;97.13;;;12.35;;
60873;SDS011;46715;40.642;-7.920;2022-11-20T06:30:04;141.13;;;14.63;;
60873;SDS011;46715;40.642;-7.920;2022-11-20T06:32:05;151.55;;;13.18;;
60873;SDS011;46715;40.642;-7.920;2022-11-20T06:34:06;133.03;;;13.17;;
60873;SDS011;46715;40.642;-7.920;2022-11-20T06:36:07;147.27;;;14.43;;
60873;SDS011;46715;40.642;-7.920;2022-11-20T06:38:09;121.20;;;11.57;;
60873;SDS011;46715;40.642;-7.920;2022-11-20T06:40:10;164.77;;;16.73;;
60873;SDS011;46715;40.642;-7.920;2022-11-20T06:42:12;143.98;;;14.88;;
60873;SDS011;46715;40.642;-7.920;2022-11-20T06:44:12;147.40;;;13.73;;
60873;SDS011;46715;40.642;-7.920;2022-11-20T06:46:14;119.00;;;13.00;;
60873;SDS011;46715;40.642;-7.920;2022-11-20T06:48:17;93.55;;;10.13;;
60873;SDS011;46715;40.642;-7.920;2022-11-20T06:50:18;103.72;;;12.02;;
60873;SDS011;46715;40.642;-7.920;2022-11-20T06:52:19;74.53;;;8.30;;
60873;SDS011;46715;40.642;-7.920;2022-11-20T06:54:20;118.23;;;11.30;;
60873;SDS011;46715;40.642;-7.920;2022-11-20T06:56:21;115.63;;;12.53;;
60873;SDS011;46715;40.642;-7.920;2022-11-20T06:58:21;105.57;;;10.53;;
60873;SDS011;46715;40.642;-7.920;2022-11-20T07:00:22;52.03;;;9.73;;
60873;SDS011;46715;40.642;-7.920;2022-11-20T07:02:23;93.13;;;12.03;;
60873;SDS011;46715;40.642;-7.920;2022-11-20T07:04:24;156.17;;;16.53;;
60873;SDS011;46715;40.642;-7.920;2022-11-20T07:06:25;101.33;;;12.70;;
60873;SDS011;46715;40.642;-7.920;2022-11-20T07:08:25;109.83;;;10.57;;
60873;SDS011;46715;40.642;-7.920;2022-11-20T07:10:26;106.83;;;12.43;;
60873;SDS011;46715;40.642;-7.920;2022-11-20T07:12:27;124.13;;;13.35;;
60873;SDS011;46715;40.642;-7.920;2022-11-20T07:14:28;127.60;;;12.40;;
60873;SDS011;46715;40.642;-7.920;2022-11-20T07:16:29;109.50;;;11.83;;
60873;SDS011;46715;40.642;-7.920;2022-11-20T07:18:30;124.43;;;11.30;;
60873;SDS011;46715;40.642;-7.920;2022-11-20T07:20:30;111.03;;;11.93;;
60873;SDS011;46715;40.642;-7.920;2022-11-20T07:22:31;134.97;;;14.93;;
60873;SDS011;46715;40.642;-7.920;2022-11-20T07:24:32;104.90;;;12.43;;
60873;SDS011;46715;40.642;-7.920;2022-11-20T07:26:33;91.30;;;12.85;;
60873;SDS011;46715;40.642;-7.920;2022-11-20T07:28:34;104.73;;;11.43;;
60873;SDS011;46715;40.642;-7.920;2022-11-20T07:32:36;138.00;;;13.02;;
60873;SDS011;46715;40.642;-7.920;2022-11-20T07:34:40;128.27;;;12.68;;
60873;SDS011;46715;40.642;-7.920;2022-11-20T07:36:41;111.07;;;13.33;;
60873;SDS011;46715;40.642;-7.920;2022-11-20T07:38:42;128.43;;;15.40;;
60873;SDS011;46715;40.642;-7.920;2022-11-20T07:40:42;110.77;;;12.60;;
60873;SDS011;46715;40.642;-7.920;2022-11-20T07:42:47;123.23;;;11.40;;
60873;SDS011;46715;40.642;-7.920;2022-11-20T07:44:51;89.90;;;10.73;;
60873;SDS011;46715;40.642;-7.920;2022-11-20T07:46:52;114.87;;;11.67;;
60873;SDS011;46715;40.642;-7.920;2022-11-20T07:48:53;112.73;;;11.63;;
60873;SDS011;46715;40.642;-7.920;2022-11-20T07:50:54;119.63;;;13.43;;
60873;SDS011;46715;40.642;-7.920;2022-11-20T07:53:05;141.88;;;15.15;;
60873;SDS011;46715;40.642;-7.920;2022-11-20T07:55:06;101.22;;;11.48;;
60873;SDS011;46715;40.642;-7.920;2022-11-20T07:57:08;99.95;;;10.85;;
60873;SDS011;46715;40.642;-7.920;2022-11-20T07:59:09;141.90;;;13.50;;
60873;SDS011;46715;40.642;-7.920;2022-11-20T08:01:11;70.07;;;10.52;;
60873;SDS011;46715;40.642;-7.920;2022-11-20T08:03:12;109.13;;;10.60;;
60873;SDS011;46715;40.642;-7.920;2022-11-20T08:05:13;89.88;;;9.70;;
60873;SDS011;46715;40.642;-7.920;2022-11-20T08:07:14;88.73;;;10.47;;
60873;SDS011;46715;40.642;-7.920;2022-11-20T08:09:15;85.63;;;10.40;;
60873;SDS011;46715;40.642;-7.920;2022-11-20T08:11:16;83.50;;;10.10;;
60873;SDS011;46715;40.642;-7.920;2022-11-20T08:13:35;64.35;;;9.10;;
60873;SDS011;46715;40.642;-7.920;2022-11-20T08:15:55;69.05;;;8.45;;
60873;SDS011;46715;40.642;-7.920;2022-11-20T08:17:59;74.37;;;10.27;;
60873;SDS011;46715;40.642;-7.920;2022-11-20T08:20:04;80.97;;;9.70;;
60873;SDS011;46715;40.642;-7.920;2022-11-20T08:22:05;77.70;;;8.50;;
60873;SDS011;46715;40.642;-7.920;2022-11-20T08:24:07;81.38;;;9.57;;
60873;SDS011;46715;40.642;-7.920;2022-11-20T08:26:08;73.50;;;9.32;;
60873;SDS011;46715;40.642;-7.920;2022-11-20T08:28:09;97.87;;;9.13;;
60873;SDS011;46715;40.642;-7.920;2022-11-20T08:30:10;148.23;;;10.43;;
60873;SDS011;46715;40.642;-7.920;2022-11-20T08:32:11;98.68;;;8.93;;
60873;SDS011;46715;40.642;-7.920;2022-11-20T08:34:12;101.63;;;9.50;;
60873;SDS011;46715;40.642;-7.920;2022-11-20T08:36:13;90.00;;;8.50;;
60873;SDS011;46715;40.642;-7.920;2022-11-20T08:38:14;119.03;;;10.40;;
60873;SDS011;46715;40.642;-7.920;2022-11-20T08:40:15;83.77;;;8.37;;
60873;SDS011;46715;40.642;-7.920;2022-11-20T08:42:15;84.93;;;8.57;;
60873;SDS011;46715;40.642;-7.920;2022-11-20T08:44:17;137.00;;;10.65;;
60873;SDS011;46715;40.642;-7.920;2022-11-20T08:46:18;80.83;;;8.23;;
60873;SDS011;46715;40.642;-7.920;2022-11-20T08:48:19;92.28;;;8.52;;
60873;SDS011;46715;40.642;-7.920;2022-11-20T08:50:20;294.33;;;17.83;;
60873;SDS011;46715;40.642;-7.920;2022-11-20T08:52:20;166.57;;;12.40;;
60873;SDS011;46715;40.642;-7.920;2022-11-20T08:54:21;275.10;;;16.67;;
60873;SDS011;46715;40.642;-7.920;2022-11-20T08:56:23;256.20;;;18.70;;
60873;SDS011;46715;40.642;-7.920;2022-11-20T08:58:24;304.20;;;21.37;;
60873;SDS011;46715;40.642;-7.920;2022-11-20T09:00:25;247.38;;;17.30;;
60873;SDS011;46715;40.642;-7.920;2022-11-20T09:02:26;166.40;;;13.00;;
60873;SDS011;46715;40.642;-7.920;2022-11-20T09:04:27;122.10;;;9.17;;
60873;SDS011;46715;40.642;-7.920;2022-11-20T09:06:27;92.77;;;9.03;;
60873;SDS011;46715;40.642;-7.920;2022-11-20T09:08:28;46.57;;;5.40;;
60873;SDS011;46715;40.642;-7.920;2022-11-20T09:10:29;43.03;;;5.80;;
60873;SDS011;46715;40.642;-7.920;2022-11-20T09:12:31;27.08;;;5.15;;
60873;SDS011;46715;40.642;-7.920;2022-11-20T09:14:31;19.17;;;3.73;;
60873;SDS011;46715;40.642;-7.920;2022-11-20T09:16:32;11.90;;;3.73;;
60873;SDS011;46715;40.642;-7.920;2022-11-20T09:18:33;37.70;;;5.90;;
60873;SDS011;46715;40.642;-7.920;2022-11-20T09:20:39;43.55;;;6.15;;
60873;SDS011;46715;40.642;-7.920;2022-11-20T09:22:41;11.75;;;3.53;;
60873;SDS011;46715;40.642;-7.920;2022-11-20T09:24:43;33.53;;;4.85;;
60873;SDS011;46715;40.642;-7.920;2022-11-20T09:26:44;122.23;;;10.10;;
60873;SDS011;46715;40.642;-7.920;2022-11-20T09:28:45;99.65;;;10.23;;
60873;SDS011;46715;40.642;-7.920;2022-11-20T09:30:45;174.77;;;14.23;;
60873;SDS011;46715;40.642;-7.920;2022-11-20T09:32:46;316.47;;;23.57;;
60873;SDS011;46715;40.642;-7.920;2022-11-20T09:34:47;299.27;;;23.63;;
60873;SDS011;46715;40.642;-7.920;2022-11-20T09:36:48;449.93;;;34.07;;
60873;SDS011;46715;40.642;-7.920;2022-11-20T09:38:48;363.33;;;27.83;;
60873;SDS011;46715;40.642;-7.920;2022-11-20T09:40:52;334.80;;;29.87;;
60873;SDS011;46715;40.642;-7.920;2022-11-20T09:43:10;287.27;;;23.27;;
60873;SDS011;46715;40.642;-7.920;2022-11-20T09:47:46;112.35;;;11.85;;
60873;SDS011;46715;40.642;-7.920;2022-11-20T09:49:58;19.13;;;4.35;;
60873;SDS011;46715;40.642;-7.920;2022-11-20T09:52:16;5.90;;;2.78;;
60873;SDS011;46715;40.642;-7.920;2022-11-20T09:54:22;7.55;;;3.60;;
60873;SDS011;46715;40.642;-7.920;2022-11-20T09:56:29;9.32;;;3.83;;
60873;SDS011;46715;40.642;-7.920;2022-11-20T10:04:52;35.00;;;6.22;;
60873;SDS011;46715;40.642;-7.920;2022-11-20T10:07:05;147.43;;;12.05;;
60873;SDS011;46715;40.642;-7.920;2022-11-20T10:20:56;2.40;;;1.75;;
60873;SDS011;46715;40.642;-7.920;2022-11-20T10:25:30;5.80;;;1.67;;
60873;SDS011;46715;40.642;-7.920;2022-11-20T10:27:49;1.27;;;1.15;;
60873;SDS011;46715;40.642;-7.920;2022-11-20T10:30:09;1.15;;;0.90;;
60873;SDS011;46715;40.642;-7.920;2022-11-20T10:32:16;3.85;;;1.20;;
60873;SDS011;46715;40.642;-7.920;2022-11-20T10:34:28;2.10;;;1.65;;
60873;SDS011;46715;40.642;-7.920;2022-11-20T10:36:41;2.60;;;1.70;;
60873;SDS011;46715;40.642;-7.920;2022-11-20T10:38:49;3.88;;;1.77;;
60873;SDS011;46715;40.642;-7.920;2022-11-20T10:41:01;2.17;;;1.33;;
60873;SDS011;46715;40.642;-7.920;2022-11-20T10:43:29;4.43;;;1.48;;
60873;SDS011;46715;40.642;-7.920;2022-11-20T10:45:36;3.28;;;1.95;;
60873;SDS011;46715;40.642;-7.920;2022-11-20T10:47:43;1.85;;;1.50;;
60873;SDS011;46715;40.642;-7.920;2022-11-20T10:49:45;2.27;;;1.13;;
60873;SDS011;46715;40.642;-7.920;2022-11-20T10:56:47;1.45;;;1.33;;
60873;SDS011;46715;40.642;-7.920;2022-11-20T11:01:05;1.60;;;1.20;;
60873;SDS011;46715;40.642;-7.920;2022-11-20T11:03:20;1.60;;;1.27;;
60873;SDS011;46715;40.642;-7.920;2022-11-20T11:07:39;1.58;;;1.20;;
60873;SDS011;46715;40.642;-7.920;2022-11-20T11:11:43;1.90;;;1.50;;
60873;SDS011;46715;40.642;-7.920;2022-11-20T11:13:44;3.78;;;1.40;;
60873;SDS011;46715;40.642;-7.920;2022-11-20T11:15:45;1.90;;;1.40;;
60873;SDS011;46715;40.642;-7.920;2022-11-20T11:17:49;3.40;;;1.50;;
60873;SDS011;46715;40.642;-7.920;2022-11-20T11:22:17;1.20;;;1.00;;
60873;SDS011;46715;40.642;-7.920;2022-11-20T11:24:27;1.45;;;1.00;;
60873;SDS011;46715;40.642;-7.920;2022-11-20T11:26:30;1.75;;;1.10;;
60873;SDS011;46715;40.642;-7.920;2022-11-20T11:28:30;1.67;;;1.20;;
60873;SDS011;46715;40.642;-7.920;2022-11-20T11:30:42;1.67;;;1.17;;
60873;SDS011;46715;40.642;-7.920;2022-11-20T11:32:44;1.30;;;1.15;;
60873;SDS011;46715;40.642;-7.920;2022-11-20T11:35:01;1.85;;;1.20;;
60873;SDS011;46715;40.642;-7.920;2022-11-20T11:37:02;1.73;;;1.20;;
60873;SDS011;46715;40.642;-7.920;2022-11-20T11:39:05;1.10;;;1.00;;
60873;SDS011;46715;40.642;-7.920;2022-11-20T11:41:22;1.40;;;1.20;;
60873;SDS011;46715;40.642;-7.920;2022-11-20T11:43:26;1.13;;;1.00;;
60873;SDS011;46715;40.642;-7.920;2022-11-20T11:45:55;3.88;;;2.08;;
60873;SDS011;46715;40.642;-7.920;2022-11-20T11:47:57;4.03;;;3.05;;
60873;SDS011;46715;40.642;-7.920;2022-11-20T11:52:17;2.35;;;1.40;;
60873;SDS011;46715;40.642;-7.920;2022-11-20T11:54:23;2.58;;;1.90;;
60873;SDS011;46715;40.642;-7.920;2022-11-20T11:56:27;2.30;;;2.10;;
60873;SDS011;46715;40.642;-7.920;2022-11-20T11:58:43;2.85;;;2.20;;
60873;SDS011;46715;40.642;-7.920;2022-11-20T12:01:07;2.67;;;2.08;;
60873;SDS011;46715;40.642;-7.920;2022-11-20T12:03:18;2.38;;;1.70;;
60873;SDS011;46715;40.642;-7.920;2022-11-20T12:05:23;3.08;;;2.17;;
60873;SDS011;46715;40.642;-7.920;2022-11-20T12:07:45;2.50;;;2.20;;
60873;SDS011;46715;40.642;-7.920;2022-11-20T12:09:53;4.22;;;1.77;;
60873;SDS011;46715;40.642;-7.920;2022-11-20T12:12:15;2.85;;;1.95;;
60873;SDS011;46715;40.642;-7.920;2022-11-20T12:16:55;2.95;;;2.65;;
60873;SDS011;46715;40.642;-7.920;2022-11-20T12:18:57;3.13;;;2.55;;
60873;SDS011;46715;40.642;-7.920;2022-11-20T12:23:28;3.65;;;2.80;;
60873;SDS011;46715;40.642;-7.920;2022-11-20T12:25:43;3.05;;;2.50;;
60873;SDS011;46715;40.642;-7.920;2022-11-20T12:30:58;2.60;;;2.40;;
60873;SDS011;46715;40.642;-7.920;2022-11-20T12:43:01;2.45;;;1.95;;
60873;SDS011;46715;40.642;-7.920;2022-11-20T12:52:53;3.28;;;2.97;;
60873;SDS011;46715;40.642;-7.920;2022-11-20T12:55:08;3.83;;;2.70;;
60873;SDS011;46715;40.642;-7.920;2022-11-20T13:02:11;2.33;;;2.13;;
60873;SDS011;46715;40.642;-7.920;2022-11-20T13:06:35;6.40;;;4.68;;
60873;SDS011;46715;40.642;-7.920;2022-11-20T13:08:38;6.55;;;4.00;;
60873;SDS011;46715;40.642;-7.920;2022-11-20T13:10:46;8.10;;;4.22;;
60873;SDS011;46715;40.642;-7.920;2022-11-20T13:17:54;11.75;;;4.53;;
60873;SDS011;46715;40.642;-7.920;2022-11-20T13:19:58;7.45;;;3.67;;
60873;SDS011;46715;40.642;-7.920;2022-11-20T13:22:00;12.50;;;4.60;;